Terminal Aerodrome Forecast
Issued by NWS Tampa Bay Area, FL

Home | Current Version | Previous Version | Text Only | Print | Product List | Glossary On
Versions: 1 2 3 4 5 6 7 8 9 10 11 12
000
FTUS42 KTBW 221134
TAFSRQ
TAF
KSRQ 221134Z 2212/2312 05006KT P6SM FEW050
     FM221400 05008KT P6SM FEW025 SCT050
     FM221700 04008KT P6SM SCT050 SCT250
     FM222000 02009KT P6SM VCTS SCT035CB BKN060
     FM230000 07006KT P6SM SCT060 BKN250
     FM230400 06005KT P6SM FEW040 SCT250=

USA.gov is the U.S. government's official web portal to all federal, state and local government web resources and services.